createdAt,value
2022-10-28T00:00:00.332Z,8.8
2022-10-28T00:10:00.253Z,8.7
2022-10-28T00:20:00.265Z,8.6
2022-10-28T00:30:00.271Z,8.4
2022-10-28T00:40:00.244Z,8.3
2022-10-28T00:50:00.268Z,8.2
2022-10-28T01:00:00.275Z,8.0
2022-10-28T01:10:00.303Z,8.0
2022-10-28T01:20:00.259Z,8.0
2022-10-28T01:30:00.252Z,7.9
2022-10-28T01:40:00.235Z,7.9
2022-10-28T01:50:00.218Z,7.8
2022-10-28T02:00:00.264Z,7.7
2022-10-28T02:10:00.251Z,7.6
2022-10-28T02:20:00.321Z,7.5
2022-10-28T02:30:00.275Z,7.4
2022-10-28T02:40:00.256Z,7.4
2022-10-28T02:50:00.265Z,7.3
2022-10-28T03:00:00.289Z,7.3
2022-10-28T03:10:00.290Z,7.2
2022-10-28T03:20:00.235Z,7.2
2022-10-28T03:30:00.336Z,7.1
2022-10-28T03:40:00.569Z,7.1
2022-10-28T03:50:00.256Z,7.1
2022-10-28T04:00:00.285Z,7.1
2022-10-28T04:10:00.258Z,7.1
2022-10-28T04:20:00.270Z,7.1
2022-10-28T04:30:00.251Z,7.1
2022-10-28T04:40:00.318Z,7.0
2022-10-28T04:50:00.254Z,7.0
2022-10-28T05:00:00.224Z,6.9
2022-10-28T05:10:00.280Z,6.8
2022-10-28T05:20:00.429Z,6.8
2022-10-28T05:30:00.259Z,6.8
2022-10-28T05:40:00.225Z,6.7
2022-10-28T05:50:00.339Z,6.7
2022-10-28T06:00:00.261Z,6.6
2022-10-28T06:10:00.267Z,6.6
2022-10-28T06:19:58.748Z,6.7
2022-10-28T06:29:58.714Z,6.7
2022-10-28T06:39:59.012Z,6.7
2022-10-28T06:50:00.282Z,6.9
2022-10-28T07:00:00.357Z,7.3
2022-10-28T07:10:00.303Z,8.0
2022-10-28T07:20:00.311Z,8.5
2022-10-28T07:30:00.308Z,9.2
2022-10-28T07:40:00.327Z,9.9
2022-10-28T07:50:00.315Z,10.8
2022-10-28T08:00:00.303Z,11.6
2022-10-28T08:10:00.314Z,12.2
2022-10-28T08:20:00.266Z,12.9
2022-10-28T08:30:00.243Z,13.7
2022-10-28T08:40:00.254Z,14.3
2022-10-28T08:50:00.280Z,15.0
2022-10-28T09:00:00.282Z,15.4
2022-10-28T09:10:00.235Z,15.7
2022-10-28T09:20:00.306Z,16.1
2022-10-28T09:30:00.239Z,16.5
2022-10-28T09:40:00.254Z,17.0
2022-10-28T09:50:00.246Z,17.4
2022-10-28T10:00:00.275Z,17.9
2022-10-28T10:10:00.284Z,18.4
2022-10-28T10:20:00.253Z,18.6
2022-10-28T10:30:00.353Z,19.0
2022-10-28T10:40:00.272Z,19.2
2022-10-28T10:50:00.264Z,19.4
2022-10-28T11:00:00.327Z,19.6
2022-10-28T11:10:00.295Z,19.8
2022-10-28T11:20:00.290Z,19.8
2022-10-28T11:30:00.301Z,19.8
2022-10-28T11:40:00.324Z,19.8
2022-10-28T11:50:00.275Z,19.8
2022-10-28T12:00:00.262Z,19.8
2022-10-28T12:10:00.272Z,19.8
2022-10-28T12:20:00.248Z,19.8
2022-10-28T12:30:00.296Z,19.9
2022-10-28T12:40:00.298Z,20.0
2022-10-28T12:50:00.350Z,20.0
2022-10-28T13:00:00.253Z,20.0
2022-10-28T13:10:00.280Z,20.0
2022-10-28T13:20:00.242Z,19.9
2022-10-28T13:30:00.238Z,19.8
2022-10-28T13:40:00.242Z,19.8
2022-10-28T13:50:00.272Z,19.8
2022-10-28T14:00:00.350Z,19.6
2022-10-28T14:10:00.250Z,19.4
2022-10-28T14:20:00.282Z,19.2
2022-10-28T14:30:00.307Z,19.0
2022-10-28T14:40:00.281Z,18.8
2022-10-28T14:50:00.263Z,18.5
2022-10-28T15:00:00.261Z,18.4
2022-10-28T15:10:00.364Z,18.1
2022-10-28T15:20:00.274Z,17.8
2022-10-28T15:30:00.314Z,17.4
2022-10-28T15:40:02.219Z,17.0
2022-10-28T15:50:00.377Z,16.6
2022-10-28T16:00:00.265Z,16.3
2022-10-28T16:10:00.249Z,16.1
2022-10-28T16:20:00.401Z,15.6
2022-10-28T16:30:00.401Z,15.4
2022-10-28T16:40:00.467Z,15.0
2022-10-28T16:50:00.324Z,14.7
2022-10-28T17:00:00.265Z,14.4
2022-10-28T17:10:00.279Z,14.2
2022-10-28T17:20:00.284Z,14.0
2022-10-28T17:30:00.718Z,13.8
2022-10-28T17:40:00.395Z,13.5
2022-10-28T17:50:00.259Z,13.4
2022-10-28T18:00:00.277Z,13.1
2022-10-28T18:10:00.259Z,12.9
2022-10-28T18:20:00.437Z,12.8
2022-10-28T18:30:00.262Z,12.6
2022-10-28T18:40:00.430Z,12.4
2022-10-28T18:50:00.280Z,12.2
2022-10-28T19:00:18.964Z,12.2
2022-10-28T19:10:00.256Z,12.0
2022-10-28T19:20:00.301Z,11.8
2022-10-28T19:30:00.267Z,11.6
2022-10-28T19:40:00.291Z,11.4
2022-10-28T19:50:00.321Z,11.3
2022-10-28T20:00:00.251Z,11.2
2022-10-28T20:10:00.407Z,11.0
2022-10-28T20:20:00.248Z,11.0
2022-10-28T20:30:00.242Z,10.8
2022-10-28T20:40:04.287Z,10.7
2022-10-28T20:50:00.295Z,10.6
2022-10-28T21:00:00.325Z,10.5
2022-10-28T21:10:00.241Z,10.4
2022-10-28T21:30:00.479Z,10.2
2022-10-28T21:40:01.025Z,10.0
2022-10-28T21:50:00.250Z,9.8
2022-10-28T22:00:00.276Z,9.7
2022-10-28T22:10:00.380Z,9.6
2022-10-28T22:20:00.271Z,9.6
2022-10-28T22:30:00.245Z,9.4
2022-10-28T22:40:00.260Z,9.3
2022-10-28T22:50:00.245Z,9.3
2022-10-28T23:00:00.258Z,9.2
2022-10-28T23:10:00.239Z,9.1
2022-10-28T23:20:00.420Z,9.0
2022-10-28T23:30:00.245Z,8.9
2022-10-28T23:40:00.351Z,8.9
2022-10-28T23:50:00.277Z,8.8
